createdAt,value
2023-02-12T00:01:27.007Z,11.20
2023-02-12T00:03:53.848Z,11.10
2023-02-12T00:06:20.583Z,11.20
2023-02-12T00:08:51.212Z,11.20
2023-02-12T00:11:20.730Z,11.20
2023-02-12T00:13:48.969Z,11.20
2023-02-12T00:16:23.630Z,11.20
2023-02-12T00:18:53.199Z,11.20
2023-02-12T00:21:20.132Z,11.20
2023-02-12T00:23:47.021Z,11.20
2023-02-12T00:26:19.916Z,11.20
2023-02-12T00:28:51.680Z,11.20
2023-02-12T00:31:21.275Z,11.20
2023-02-12T00:33:50.660Z,11.10
2023-02-12T00:36:20.144Z,11.20
2023-02-12T00:38:47.343Z,11.20
2023-02-12T00:41:19.163Z,11.10
2023-02-12T00:43:48.587Z,11.10
2023-02-12T00:46:15.628Z,11.10
2023-02-12T00:48:43.490Z,11.10
2023-02-12T00:51:13.288Z,11.10
2023-02-12T00:53:40.037Z,11.10
2023-02-12T00:56:07.315Z,11.10
2023-02-12T00:58:36.057Z,11.10
2023-02-12T01:01:03.612Z,11.10
2023-02-12T01:03:32.740Z,11.10
2023-02-12T01:05:59.315Z,11.10
2023-02-12T01:08:26.190Z,11.00
2023-02-12T01:10:58.282Z,11.10
2023-02-12T01:13:25.941Z,11.00
2023-02-12T01:16:10.656Z,11.00
2023-02-12T01:18:37.876Z,11.00
2023-02-12T01:21:13.662Z,11.00
2023-02-12T01:23:43.772Z,11.00
2023-02-12T01:26:12.046Z,11.00
2023-02-12T01:28:42.996Z,11.00
2023-02-12T01:31:21.322Z,10.90
2023-02-12T01:33:53.041Z,10.90
2023-02-12T01:36:19.788Z,10.90
2023-02-12T01:38:51.100Z,10.90
2023-02-12T01:41:28.382Z,10.90
2023-02-12T01:44:19.891Z,10.90
2023-02-12T01:46:58.120Z,10.90
2023-02-12T01:49:39.872Z,10.80
2023-02-12T01:52:13.766Z,10.90
2023-02-12T01:54:41.250Z,10.80
2023-02-12T01:57:11.660Z,10.80
2023-02-12T01:59:41.837Z,10.80
2023-02-12T02:02:14.110Z,10.80
2023-02-12T02:04:46.276Z,10.80
2023-02-12T02:07:13.138Z,10.80
2023-02-12T02:09:41.113Z,10.70
2023-02-12T02:12:27.682Z,10.80
2023-02-12T02:14:59.935Z,10.80
2023-02-12T02:17:54.139Z,10.80
2023-02-12T02:20:59.131Z,10.70
2023-02-12T02:23:50.028Z,10.80
2023-02-12T02:26:52.135Z,10.70
2023-02-12T02:29:39.416Z,10.70
2023-02-12T02:32:29.415Z,10.70
2023-02-12T02:34:58.807Z,10.70
2023-02-12T02:37:48.018Z,10.70
2023-02-12T02:40:25.440Z,10.70
2023-02-12T02:43:14.339Z,10.80
2023-02-12T02:45:42.680Z,10.70
2023-02-12T02:48:28.689Z,10.70
2023-02-12T02:51:09.452Z,10.70
2023-02-12T02:53:49.541Z,10.70
2023-02-12T02:56:19.066Z,10.60
2023-02-12T02:58:57.660Z,10.60
2023-02-12T03:01:43.917Z,10.70
2023-02-12T03:04:21.090Z,10.60
2023-02-12T03:07:00.929Z,10.60
2023-02-12T03:09:45.963Z,10.60
2023-02-12T03:12:26.837Z,10.60
2023-02-12T03:15:09.894Z,10.60
2023-02-12T03:17:43.678Z,10.60
2023-02-12T03:20:13.320Z,10.60
2023-02-12T03:22:45.211Z,10.60
2023-02-12T03:25:37.644Z,10.60
2023-02-12T03:28:20.490Z,10.60
2023-02-12T03:31:01.599Z,10.60
2023-02-12T03:33:48.403Z,10.60
2023-02-12T03:36:34.380Z,10.60
2023-02-12T03:39:17.399Z,10.60
2023-02-12T03:41:50.073Z,10.60
2023-02-12T03:44:30.610Z,10.60
2023-02-12T03:47:05.765Z,10.60
2023-02-12T03:50:00.918Z,10.60
2023-02-12T03:52:29.161Z,10.50
2023-02-12T03:54:55.817Z,10.50
2023-02-12T03:57:31.264Z,10.60
2023-02-12T04:00:19.002Z,10.60
2023-02-12T04:02:47.227Z,10.60
2023-02-12T04:05:25.887Z,10.60
2023-02-12T04:07:58.845Z,10.60
2023-02-12T04:10:38.525Z,10.60
2023-02-12T04:13:42.788Z,10.60
2023-02-12T04:16:53.678Z,10.60
2023-02-12T04:19:36.854Z,10.60
2023-02-12T04:22:20.999Z,10.60
2023-02-12T04:25:07.121Z,10.60
2023-02-12T04:28:11.722Z,10.60
2023-02-12T04:30:46.177Z,10.60
2023-02-12T04:33:19.462Z,10.60
2023-02-12T04:35:56.082Z,10.60
2023-02-12T04:38:33.402Z,10.60
2023-02-12T04:41:00.294Z,10.60
2023-02-12T04:43:36.518Z,10.60
2023-02-12T04:46:08.026Z,10.60
2023-02-12T04:48:37.210Z,10.50
2023-02-12T04:51:04.060Z,10.50
2023-02-12T04:53:30.648Z,10.50
2023-02-12T04:55:57.591Z,10.50
2023-02-12T04:58:24.394Z,10.50
2023-02-12T05:00:50.969Z,10.50
2023-02-12T05:03:17.562Z,10.50
2023-02-12T05:05:46.021Z,10.50
2023-02-12T05:08:15.469Z,10.50
2023-02-12T05:10:42.049Z,10.50
2023-02-12T05:13:08.625Z,10.50
2023-02-12T05:15:35.283Z,10.50
2023-02-12T05:18:04.161Z,10.50
2023-02-12T05:20:33.362Z,10.50
2023-02-12T05:22:59.913Z,10.50
2023-02-12T05:25:26.574Z,10.50
2023-02-12T05:27:53.117Z,10.50
2023-02-12T05:30:19.795Z,10.50
2023-02-12T05:32:46.358Z,10.50
2023-02-12T05:35:12.936Z,10.50
2023-02-12T05:37:39.531Z,10.50
2023-02-12T05:40:08.601Z,10.50
2023-02-12T05:42:35.153Z,10.50
2023-02-12T05:45:04.875Z,10.50
2023-02-12T05:47:31.471Z,10.50
2023-02-12T05:49:58.007Z,10.50
2023-02-12T05:52:27.112Z,10.50
2023-02-12T05:54:53.717Z,10.50
2023-02-12T05:57:20.269Z,10.50
2023-02-12T05:59:46.846Z,10.50
2023-02-12T06:02:15.870Z,10.50
2023-02-12T06:04:43.488Z,10.50
2023-02-12T06:07:10.117Z,10.50
2023-02-12T06:09:37.483Z,10.50
2023-02-12T06:12:06.577Z,10.50
2023-02-12T06:14:33.138Z,10.50
2023-02-12T06:17:02.356Z,10.50
2023-02-12T06:19:28.907Z,10.50
2023-02-12T06:21:56.491Z,10.50
2023-02-12T06:24:23.074Z,10.50
2023-02-12T06:26:51.002Z,10.50
2023-02-12T06:29:18.987Z,10.50
2023-02-12T06:31:45.754Z,10.50
2023-02-12T06:34:21.696Z,10.50
2023-02-12T06:36:50.726Z,10.40
2023-02-12T06:39:17.977Z,10.50
2023-02-12T06:41:48.341Z,10.40
2023-02-12T06:44:17.296Z,10.40
2023-02-12T06:46:43.872Z,10.40
2023-02-12T06:49:14.323Z,10.50
2023-02-12T06:51:44.300Z,10.40
2023-02-12T06:54:15.567Z,10.40
2023-02-12T06:56:42.412Z,10.40
2023-02-12T06:59:14.942Z,10.40
2023-02-12T07:01:44.696Z,10.40
2023-02-12T07:04:11.735Z,10.40
2023-02-12T07:06:39.820Z,10.40
2023-02-12T07:09:09.086Z,10.40
2023-02-12T07:11:40.184Z,10.40
2023-02-12T07:14:17.071Z,10.50
2023-02-12T07:16:43.759Z,10.40
2023-02-12T07:19:13.578Z,10.40
2023-02-12T07:21:42.119Z,10.40
2023-02-12T07:24:14.439Z,10.50
2023-02-12T07:26:41.753Z,10.50
2023-02-12T07:29:08.462Z,10.50
2023-02-12T07:31:42.176Z,10.50
2023-02-12T07:34:11.439Z,10.50
2023-02-12T07:36:38.114Z,10.50
2023-02-12T07:39:06.744Z,10.50
2023-02-12T07:41:36.199Z,10.60
2023-02-12T07:44:07.257Z,10.70
2023-02-12T07:46:36.314Z,10.60
2023-02-12T07:49:06.404Z,10.60
2023-02-12T07:51:37.154Z,10.60
2023-02-12T07:54:04.178Z,10.60
2023-02-12T07:56:35.309Z,10.60
2023-02-12T07:59:11.780Z,10.70
2023-02-12T08:01:41.034Z,10.70
2023-02-12T08:04:15.785Z,10.80
2023-02-12T08:06:44.757Z,10.80
2023-02-12T08:09:14.084Z,10.80
2023-02-12T08:11:44.168Z,10.80
2023-02-12T08:14:16.814Z,10.90
2023-02-12T08:16:45.077Z,10.90
2023-02-12T08:19:19.319Z,10.90
2023-02-12T08:21:52.396Z,11.00
2023-02-12T08:24:24.317Z,11.00
2023-02-12T08:26:51.488Z,11.00
2023-02-12T08:29:23.880Z,11.10
2023-02-12T08:31:55.131Z,11.10
2023-02-12T08:34:24.100Z,11.20
2023-02-12T08:36:53.790Z,11.20
2023-02-12T08:39:21.480Z,11.30
2023-02-12T08:41:48.858Z,11.30
2023-02-12T08:44:16.415Z,11.30
2023-02-12T08:46:46.773Z,11.40
2023-02-12T08:49:21.811Z,11.40
2023-02-12T08:51:50.914Z,11.40
2023-02-12T08:54:20.272Z,11.50
2023-02-12T08:56:47.004Z,11.50
2023-02-12T08:59:15.010Z,11.60
2023-02-12T09:01:42.247Z,11.60
2023-02-12T09:04:18.358Z,11.60
2023-02-12T09:06:46.100Z,11.60
2023-02-12T09:09:13.553Z,11.70
2023-02-12T09:11:40.556Z,11.70
2023-02-12T09:14:10.753Z,11.70
2023-02-12T09:16:38.069Z,11.80
2023-02-12T09:19:04.759Z,11.80
2023-02-12T09:21:31.994Z,11.80
2023-02-12T09:23:58.587Z,11.80
2023-02-12T09:26:26.075Z,11.90
2023-02-12T09:28:53.597Z,11.90
2023-02-12T09:31:29.180Z,12.00
2023-02-12T09:34:02.793Z,12.00
2023-02-12T09:36:30.049Z,12.10
2023-02-12T09:39:00.289Z,12.10
2023-02-12T09:41:38.746Z,12.10
2023-02-12T09:44:17.377Z,12.20
2023-02-12T09:46:58.645Z,12.20
2023-02-12T09:50:13.840Z,12.20
2023-02-12T09:52:41.417Z,12.20
2023-02-12T09:55:15.274Z,12.30
2023-02-12T09:57:42.921Z,12.30
2023-02-12T10:00:21.663Z,12.40
2023-02-12T10:02:52.471Z,12.40
2023-02-12T10:05:24.735Z,12.40
2023-02-12T10:08:22.146Z,12.50
2023-02-12T10:11:06.861Z,12.50
2023-02-12T10:13:59.775Z,12.60
2023-02-12T10:16:38.350Z,12.70
2023-02-12T10:19:16.057Z,12.70
2023-02-12T10:22:21.149Z,12.70
2023-02-12T10:25:01.706Z,12.80
2023-02-12T10:27:39.235Z,12.80
2023-02-12T10:30:31.017Z,12.80
2023-02-12T10:33:06.210Z,12.90
2023-02-12T10:35:34.699Z,12.90
2023-02-12T10:38:07.536Z,12.90
2023-02-12T10:40:37.538Z,13.00
2023-02-12T10:43:04.337Z,13.00
2023-02-12T10:45:35.755Z,13.00
2023-02-12T10:48:10.212Z,13.10
2023-02-12T10:50:48.900Z,13.10
2023-02-12T10:53:21.188Z,13.10
2023-02-12T10:55:48.045Z,13.20
2023-02-12T10:58:24.169Z,13.20
2023-02-12T11:01:01.496Z,13.20
2023-02-12T11:03:37.495Z,13.30
2023-02-12T11:06:19.703Z,13.30
2023-02-12T11:08:47.101Z,13.30
2023-02-12T11:11:15.753Z,13.30
2023-02-12T11:14:13.433Z,13.30
2023-02-12T11:16:50.852Z,13.30
2023-02-12T11:19:28.071Z,13.30
2023-02-12T11:22:19.677Z,13.30
2023-02-12T11:24:47.062Z,13.40
2023-02-12T11:27:21.503Z,13.40
2023-02-12T11:30:10.381Z,13.50
2023-02-12T11:32:37.560Z,13.50
2023-02-12T11:35:05.824Z,13.50
2023-02-12T11:37:36.257Z,13.50
2023-02-12T11:40:06.604Z,13.50
2023-02-12T11:42:37.491Z,13.60
2023-02-12T11:45:04.667Z,13.60
2023-02-12T11:47:34.813Z,13.60
2023-02-12T11:50:04.091Z,13.70
2023-02-12T11:52:36.294Z,13.70
2023-02-12T11:55:07.227Z,13.70
2023-02-12T11:57:51.900Z,13.80
2023-02-12T12:00:56.945Z,13.80
2023-02-12T12:03:35.839Z,13.80
2023-02-12T12:06:29.699Z,13.80
2023-02-12T12:09:13.381Z,13.80
2023-02-12T12:12:04.826Z,13.90
2023-02-12T12:15:16.397Z,13.90
2023-02-12T12:18:07.806Z,13.90
2023-02-12T12:20:43.822Z,14.00
2023-02-12T12:23:18.977Z,14.00
2023-02-12T12:25:50.903Z,14.00
2023-02-12T12:28:47.617Z,14.00
2023-02-12T12:31:23.258Z,14.10
2023-02-12T12:33:51.895Z,14.10
2023-02-12T12:36:30.642Z,14.10
2023-02-12T12:38:57.138Z,14.10
2023-02-12T12:41:58.941Z,14.10
2023-02-12T12:44:44.327Z,14.20
2023-02-12T12:47:34.640Z,14.20
2023-02-12T12:50:21.400Z,14.30
2023-02-12T12:53:00.370Z,14.30
2023-02-12T12:55:54.729Z,14.30
2023-02-12T12:58:49.267Z,14.30
2023-02-12T13:01:34.832Z,14.40
2023-02-12T13:04:36.183Z,14.40
2023-02-12T13:07:40.937Z,14.40
2023-02-12T13:10:29.081Z,14.40
2023-02-12T13:13:18.004Z,14.40
2023-02-12T13:15:59.460Z,14.40
2023-02-12T13:18:45.949Z,14.50
2023-02-12T13:21:37.735Z,14.40
2023-02-12T13:24:25.743Z,14.40
2023-02-12T13:27:10.686Z,14.30
2023-02-12T13:29:43.254Z,14.30
2023-02-12T13:32:34.501Z,14.30
2023-02-12T13:35:02.645Z,14.30
2023-02-12T13:37:40.317Z,14.30
2023-02-12T13:40:14.061Z,14.20
2023-02-12T13:42:56.244Z,14.20
2023-02-12T13:45:33.217Z,14.20
2023-02-12T13:48:23.402Z,14.20
2023-02-12T13:51:14.697Z,14.20
2023-02-12T13:53:58.788Z,14.20
2023-02-12T13:56:32.791Z,14.20
2023-02-12T13:59:01.067Z,14.20
2023-02-12T14:01:49.310Z,14.10
2023-02-12T14:04:26.274Z,14.10
2023-02-12T14:07:12.503Z,14.10
2023-02-12T14:09:42.877Z,14.10
2023-02-12T14:12:28.258Z,14.10
2023-02-12T14:15:29.556Z,14.10
2023-02-12T14:18:02.262Z,14.10
2023-02-12T14:20:34.097Z,14.10
2023-02-12T14:23:00.629Z,14.10
2023-02-12T14:25:38.564Z,14.10
2023-02-12T14:28:21.316Z,14.10
2023-02-12T14:31:20.010Z,14.10
2023-02-12T14:33:53.300Z,14.10
2023-02-12T14:36:43.700Z,14.00
2023-02-12T14:39:19.245Z,14.10
2023-02-12T14:41:53.557Z,14.00
2023-02-12T14:44:21.414Z,14.00
2023-02-12T14:46:50.601Z,14.00
2023-02-12T14:49:34.345Z,13.90
2023-02-12T14:52:13.308Z,14.00
2023-02-12T14:54:51.665Z,13.90
2023-02-12T14:57:36.742Z,14.00
2023-02-12T15:00:18.817Z,13.90
2023-02-12T15:02:59.836Z,13.90
2023-02-12T15:05:39.394Z,13.90
2023-02-12T15:08:29.330Z,13.90
2023-02-12T15:11:18.313Z,13.90
2023-02-12T15:13:54.740Z,13.80
2023-02-12T15:16:50.191Z,13.80
2023-02-12T15:19:34.080Z,13.80
2023-02-12T15:22:00.933Z,13.70
2023-02-12T15:24:30.162Z,13.70
2023-02-12T15:26:59.403Z,13.70
2023-02-12T15:29:33.869Z,13.70
2023-02-12T15:32:05.457Z,13.60
2023-02-12T15:34:37.126Z,13.60
2023-02-12T15:37:05.356Z,13.60
2023-02-12T15:39:43.436Z,13.60
2023-02-12T15:42:31.573Z,13.60
2023-02-12T15:45:17.896Z,13.60
2023-02-12T15:47:54.361Z,13.60
2023-02-12T15:50:22.463Z,13.50
2023-02-12T15:52:52.867Z,13.50
2023-02-12T15:55:25.061Z,13.50
2023-02-12T15:58:00.095Z,13.50
2023-02-12T16:00:39.715Z,13.50
2023-02-12T16:03:06.481Z,13.40
2023-02-12T16:05:35.359Z,13.40
2023-02-12T16:08:02.367Z,13.40
2023-02-12T16:10:29.177Z,13.40
2023-02-12T16:12:55.987Z,13.30
2023-02-12T16:15:34.771Z,13.30
2023-02-12T16:18:04.020Z,13.30
2023-02-12T16:20:31.356Z,13.30
2023-02-12T16:23:00.649Z,13.30
2023-02-12T16:25:31.029Z,13.20
2023-02-12T16:28:17.735Z,13.20
2023-02-12T16:30:48.245Z,13.20
2023-02-12T16:34:07.741Z,13.20
2023-02-12T16:36:34.370Z,13.20
2023-02-12T16:39:07.563Z,13.10
2023-02-12T16:41:56.542Z,13.10
2023-02-12T16:44:31.394Z,13.10
2023-02-12T16:47:01.801Z,13.10
2023-02-12T16:49:28.794Z,13.00
2023-02-12T16:52:20.069Z,13.00
2023-02-12T16:54:49.207Z,13.00
2023-02-12T16:57:15.765Z,12.90
2023-02-12T16:59:46.539Z,12.90
2023-02-12T17:02:14.565Z,12.90
2023-02-12T17:04:43.708Z,12.90
2023-02-12T17:07:24.611Z,12.90
2023-02-12T17:09:51.207Z,12.80
2023-02-12T17:12:17.831Z,12.80
2023-02-12T17:14:46.553Z,12.80
2023-02-12T17:17:13.196Z,12.80
2023-02-12T17:19:41.408Z,12.70
2023-02-12T17:22:17.109Z,12.70
2023-02-12T17:24:53.295Z,12.70
2023-02-12T17:27:20.399Z,12.70
2023-02-12T17:29:47.067Z,12.60
2023-02-12T17:32:13.775Z,12.60
2023-02-12T17:34:48.638Z,12.60
2023-02-12T17:37:20.055Z,12.60
2023-02-12T17:39:46.635Z,12.60
2023-02-12T17:42:15.692Z,12.60
2023-02-12T17:44:46.662Z,12.50
2023-02-12T17:47:13.367Z,12.50
2023-02-12T17:49:42.514Z,12.50
2023-02-12T17:52:09.099Z,12.50
2023-02-12T17:54:36.390Z,12.50
2023-02-12T17:57:06.568Z,12.50
2023-02-12T17:59:35.038Z,12.50
2023-02-12T18:02:02.592Z,12.50
2023-02-12T18:04:33.328Z,12.50
2023-02-12T18:06:59.947Z,12.40
2023-02-12T18:09:32.852Z,12.40
2023-02-12T18:12:01.950Z,12.40
2023-02-12T18:14:28.520Z,12.40
2023-02-12T18:16:55.289Z,12.40
2023-02-12T18:19:21.870Z,12.40
2023-02-12T18:21:50.751Z,12.40
2023-02-12T18:24:17.298Z,12.30
2023-02-12T18:26:49.181Z,12.40
2023-02-12T18:29:15.787Z,12.30
2023-02-12T18:31:45.302Z,12.30
2023-02-12T18:34:11.912Z,12.30
2023-02-12T18:36:38.569Z,12.30
2023-02-12T18:39:08.929Z,12.20
2023-02-12T18:41:35.688Z,12.20
2023-02-12T18:44:02.331Z,12.20
2023-02-12T18:46:32.229Z,12.20
2023-02-12T18:49:02.857Z,12.10
2023-02-12T18:51:35.319Z,12.10
2023-02-12T18:54:11.023Z,12.10
2023-02-12T18:56:43.419Z,12.00
2023-02-12T18:59:15.415Z,12.00
2023-02-12T19:01:46.216Z,11.90
2023-02-12T19:04:18.099Z,11.90
2023-02-12T19:06:50.876Z,11.80
2023-02-12T19:09:32.106Z,11.80
2023-02-12T19:12:02.135Z,11.70
2023-02-12T19:14:28.888Z,11.60
2023-02-12T19:16:55.594Z,11.60
2023-02-12T19:19:26.694Z,11.60
2023-02-12T19:21:53.385Z,11.50
2023-02-12T19:24:22.145Z,11.50
2023-02-12T19:26:52.178Z,11.40
2023-02-12T19:29:18.978Z,11.40
2023-02-12T19:31:48.708Z,11.30
2023-02-12T19:34:19.507Z,11.30
2023-02-12T19:36:47.092Z,11.20
2023-02-12T19:39:15.592Z,11.20
2023-02-12T19:41:47.948Z,11.10
2023-02-12T19:44:24.482Z,11.10
2023-02-12T19:46:53.335Z,11.10
2023-02-12T19:49:22.730Z,11.00
2023-02-12T19:51:51.025Z,10.90
2023-02-12T19:54:21.497Z,10.90
2023-02-12T19:56:51.166Z,10.90
2023-02-12T19:59:22.446Z,10.80
2023-02-12T20:01:49.717Z,10.70
2023-02-12T20:04:21.870Z,10.70
2023-02-12T20:06:52.245Z,10.70
2023-02-12T20:09:20.843Z,10.60
2023-02-12T20:11:47.423Z,10.60
2023-02-12T20:14:18.836Z,10.60
2023-02-12T20:16:48.186Z,10.60
2023-02-12T20:19:19.185Z,10.50
2023-02-12T20:21:51.654Z,10.50
2023-02-12T20:24:18.449Z,10.50
2023-02-12T20:26:44.999Z,10.50
2023-02-12T20:29:11.631Z,10.50
2023-02-12T20:31:40.452Z,10.50
2023-02-12T20:34:10.991Z,10.50
2023-02-12T20:36:39.687Z,10.50
2023-02-12T20:39:09.235Z,10.50
2023-02-12T20:41:39.105Z,10.50
2023-02-12T20:44:08.262Z,10.50
2023-02-12T20:46:42.360Z,10.50
2023-02-12T20:49:11.647Z,10.50
2023-02-12T20:51:38.201Z,10.50
2023-02-12T20:54:04.917Z,10.50
2023-02-12T20:56:33.808Z,10.50
2023-02-12T20:59:05.525Z,10.50
2023-02-12T21:01:36.661Z,10.50
2023-02-12T21:04:15.214Z,10.50
2023-02-12T21:06:44.651Z,10.50
2023-02-12T21:09:14.979Z,10.50
2023-02-12T21:11:45.010Z,10.50
2023-02-12T21:14:23.963Z,10.50
2023-02-12T21:16:53.544Z,10.50
2023-02-12T21:19:20.692Z,10.50
2023-02-12T21:21:49.174Z,10.50
2023-02-12T21:24:18.664Z,10.50
2023-02-12T21:26:45.304Z,10.50
2023-02-12T21:29:11.938Z,10.40
2023-02-12T21:31:44.424Z,10.40
2023-02-12T21:34:17.606Z,10.40
2023-02-12T21:36:48.142Z,10.30
2023-02-12T21:39:24.330Z,10.30
2023-02-12T21:41:52.990Z,10.20
2023-02-12T21:44:23.428Z,10.20
2023-02-12T21:46:50.226Z,10.20
2023-02-12T21:49:27.500Z,10.10
2023-02-12T21:51:59.618Z,10.10
2023-02-12T21:54:26.488Z,10.00
2023-02-12T21:56:53.335Z,10.00
2023-02-12T21:59:24.521Z,10.00
2023-02-12T22:01:53.970Z,10.00
2023-02-12T22:04:20.982Z,9.90
2023-02-12T22:06:50.166Z,9.90
2023-02-12T22:09:19.917Z,9.90
2023-02-12T22:11:50.189Z,9.90
2023-02-12T22:14:22.974Z,9.80
2023-02-12T22:16:52.898Z,9.80
2023-02-12T22:19:19.824Z,9.80
2023-02-12T22:21:51.395Z,9.80
2023-02-12T22:24:25.394Z,9.80
2023-02-12T22:26:53.853Z,9.80
2023-02-12T22:29:22.828Z,9.70
2023-02-12T22:31:49.751Z,9.70
2023-02-12T22:34:18.775Z,9.70
2023-02-12T22:36:46.272Z,9.60
2023-02-12T22:39:13.464Z,9.60
2023-02-12T22:41:43.742Z,9.50
2023-02-12T22:44:14.374Z,9.50
2023-02-12T22:46:42.859Z,9.50
2023-02-12T22:49:09.694Z,9.40
2023-02-12T22:51:38.768Z,9.30
2023-02-12T22:54:06.338Z,9.30
2023-02-12T22:56:36.630Z,9.20
2023-02-12T22:59:05.641Z,9.20
2023-02-12T23:01:36.098Z,9.10
2023-02-12T23:04:02.840Z,9.00
2023-02-12T23:06:33.668Z,9.00
2023-02-12T23:09:03.357Z,8.90
2023-02-12T23:11:32.140Z,8.80
2023-02-12T23:14:00.289Z,8.80
2023-02-12T23:16:27.052Z,8.70
2023-02-12T23:19:03.354Z,8.60
2023-02-12T23:21:31.630Z,8.60
2023-02-12T23:24:00.739Z,8.50
2023-02-12T23:26:29.583Z,8.40
2023-02-12T23:28:56.779Z,8.30
2023-02-12T23:31:26.090Z,8.30
2023-02-12T23:33:52.704Z,8.20
2023-02-12T23:36:22.190Z,8.10
2023-02-12T23:38:48.904Z,8.10
2023-02-12T23:41:18.442Z,8.00
2023-02-12T23:43:45.042Z,8.00
2023-02-12T23:46:11.760Z,7.90
2023-02-12T23:48:38.409Z,7.80
2023-02-12T23:51:05.146Z,7.80
2023-02-12T23:53:31.729Z,7.80
2023-02-12T23:55:58.544Z,7.70
2023-02-12T23:58:25.135Z,7.70
